CNV8 weather

Edenvale Aerodrome
Edenvale, Ontario, Canada

Public forecast

Using degrees Celsius for public forecast. Weather courtesy of forecast.io.

METAR (pilot weather report)

Closest report is CFB Borden, 10.4 nm (19.3 km) SSE. Retrieved 2019/04/24 23:00 UTC (33 minutes ago):

CYBN 242300Z AUTO 35006KT 310V030 9SM FEW041 08/03 A2992 RMK SLP139

TAF (pilot weather forecast)

Closest forecast is CFB Borden, 10.4 nm (19.3 km) SSE. Retrieved 2019/04/24 18:33 UTC (5 hours ago):

TAF TAF CYBN 241730Z 2418/2506 31010G20KT P6SM OVC020 TEMPO 2418/2421 SCT020 OVC040 FM242100 31010KT P6SM SCT040 BECMG 2422/2424 VRB03KT FEW240 FM250300 VRB03KT P6SM SCT240 TEMPO 2503/2506 5SM BR RMK FCST BASED ON AUTO OBS. NXT FCST BY 250000Z